Station info - map view · info · telemetry · weather · raw · status · beacons · messages · bulletins · browse · moving · my account
Callsign, ship name or locator: Clear       
It is possible to search using wildcards (*?) after a prefix. Example: OH*
APRS station IW2GOB-9 - show graphs
Map loading...
Comment: Op. Maurizio - RCD710+IC2820+AVM6
Mic-E message: En route
Location: 45°18.88' N 9°30.78' E - locator JN45SH15NM - show map - static map
0.5 miles East bearing 81° from Lodi, Provincia di Lodi, Lombardy, Italy [?]
2.3 miles Northeast bearing 32° from Cornegliano Laudense, Provincia di Lodi, Lombardy, Italy
18.8 miles Southeast bearing 123° from Milan, Province of Milan, Lombardy, Italy
68.8 miles Northeast bearing 24° from Genova, Province of Genoa, Liguria, Italy
Last position: 2018-10-19 02:07:26 EDT (18h35m ago)
2018-10-19 08:07:26 CEST local time at Lodi, Italy [?]
Altitude: 187 ft
Course: 103°
Speed: 14 MPH
Device: Kenwood: TM-D710 (rig)
Last path: IW2GOB-9>TU1XX8 via WIDE1-1,WIDE2-2,qAR,IR2BZ (good)
Positions stored: 151411
Packet rate: 46 seconds between packets on average during 1101 seconds.
Other SSIDs: IW2GOB IW2GOB-1 IW2GOB-11 IW2GOB-12 IW2GOB-2 IW2GOB-3 IW2GOB-7 IW2GOB-8 IW2GOB-99 IW2GOB-A IW2GOB-B IW2GOB-DG IW2GOB-DP IW2GOB-H0 IW2GOB-N IW2GOB-R IW2GOB-R0 IW2GOB-Y
Stations near current position of IW2GOB-9 - show more
callsign distance last heard - EDT      callsign distance last heard - EDT
IW2GOB-7370.6 yards 267°2018-09-23 12:13:06 IW2GOB370.6 yards 267°2018-10-06 15:15:03
IZ2DDY0.5 miles 227°2018-10-19 13:08:33 IZ2DDY B0.5 miles 227°2018-10-19 20:26:25
IZ2DDY-B0.5 miles 227°2018-10-19 20:26:35 IZ2DDY-H00.5 miles 227°2018-10-19 20:30:19
IK2PYX-60.5 miles 234°2018-10-19 17:21:00 IZ2DDY-80.5 miles 231°2018-10-18 13:58:18
IK2PYX B0.5 miles 229°2018-10-19 20:36:46 IK2PYX-B0.5 miles 229°2018-10-19 20:36:56
IK2PYX-R0.5 miles 229°2018-10-19 20:36:31 IK2PYX-90.5 miles 238°2018-10-15 12:46:03
PS-IK2PYX0.5 miles 227°2018-10-19 20:05:20 IK2PYX-20.7 miles 221°2018-10-07 11:23:34
IU2IOL-H00.8 miles 209°2018-10-19 20:30:13 IW2GOB-31.1 miles 161°2018-10-19 20:42:09
IW2GOB-21.1 miles 161°2018-10-19 20:38:08 IW2GOB-121.1 miles 161°2018-10-19 20:42:38
IW2GOB-A1.1 miles 161°2018-10-19 13:34:47 IR2AY C1.3 miles 247°2018-10-19 20:30:39
Stations which heard IW2GOB-9 directly on radio –
callsign pkts first heard - EDT last heard longest (tx => rx) longest at - EDT
IR1AO 2 2018-10-17 16:11:37 2018-10-17 16:13:07 JN45RG > JN35XO 75.1 miles 288° 2018-10-17 16:13:07
IR2AO 20 2018-10-17 11:41:36 2018-10-19 02:02:04 JN45RG > JN45PM 18.4 miles 341° 2018-10-17 16:10:57
IR2UBX-11 6 2018-10-17 11:42:28 2018-10-19 01:52:41 JN45SH > JN45MQ 35.2 miles 319° 2018-10-18 10:29:35
IR4AN 1 2018-10-17 13:21:01 2018-10-17 13:21:01 JN45SH > JN54FK 76.1 miles 141° 2018-10-17 13:21:01
IR1AX-11 1 2018-10-18 12:27:38 2018-10-18 12:27:38 JN45SH > JN44KL 64.1 miles 210° 2018-10-18 12:27:38
IR2BZ 40 2018-10-17 11:41:36 2018-10-19 02:07:16 JN45RG > JN45XO 32.5 miles 49° 2018-10-17 16:11:25
IW2HUZ-11 3 2018-10-17 13:20:11 2018-10-19 02:04:02 JN45SH > JN45MU 45.6 miles 331° 2018-10-17 13:20:11
IW2GOB-2 40 2018-10-17 11:45:13 2018-10-19 02:05:31 JN45RH > JN45SH 1.8 miles 107° 2018-10-18 01:47:19
IQ2ER 11 2018-10-17 11:42:17 2018-10-19 02:07:16 JN45RG > JN45OT 37.7 miles 345° 2018-10-17 16:11:35
IR1DM 3 2018-10-17 14:06:27 2018-10-17 16:13:06 JN45RG > JN44JS 49.3 miles 223° 2018-10-17 16:13:06
IR2BW 3 2018-10-17 13:21:01 2018-10-18 12:26:50 JN45RH > JN55DN 42.6 miles 63° 2018-10-17 13:22:31
IR2DF 1 2018-10-17 11:42:26 2018-10-17 11:42:26 JN45SH > JN55AS 39.2 miles 38° 2018-10-17 11:42:26
IR2BY 20 2018-10-17 11:42:26 2018-10-19 02:07:26 JN45RG > JN55BQ 42.6 miles 46° 2018-10-17 14:06:16
IR2UCL 5 2018-10-17 11:45:45 2018-10-18 13:44:27 JN45RH > JN45UP 25.8 miles 21° 2018-10-17 16:15:57
IQ3VO 8 2018-10-17 13:22:57 2018-10-18 13:44:51 JN45RG > JN55MQ 82.8 miles 69° 2018-10-17 16:11:55
IR2DQ 5 2018-10-17 11:41:36 2018-10-19 02:00:44 JN45RG > JN55AD 27.9 miles 106° 2018-10-17 16:11:55
IR2AL 5 2018-10-17 14:04:06 2018-10-18 13:45:37 JN45SH > JN45OL 19.8 miles 311° 2018-10-18 13:40:17
IW2GOB-12 89 2018-10-17 11:41:38 2018-10-19 02:07:36 JN45RG > JN45SH 3.6 miles 64° 2018-10-17 14:06:17
IZ2DDY 22 2018-10-18 10:28:25 2018-10-18 13:47:07 JN54FK > JN45SH 77.1 miles 322° 2018-10-18 13:40:16

Only position packets which were originated by the station are shown here. The range statistics show some extra long hops, because some digipeaters do not correctly add themselves to the digipeater path. Please check the raw packets.
About this site
This page shows real-time information collected from the Automatic Position Reporting System Internet network (APRS-IS). APRS is used by amateur (ham) radio operators to transmit real-time position information, weather data, telemetry and messages over the radio. A vehicle equipped with a GPS receiver, a VHF transmitter or HF transceiver and a small computer device called a tracker transmits it's location, speed and course in a small data packet, which is then received by a nearby iGate receiving site which forwards the packet on the Internet. Systems connected to the Internet can send information on the APRS-IS without a radio transmitter, or collect and display information transmitted anywhere in the world.
FAQ · Blog · Discussion group · Linking to aprs.fi · AIS sites · Service status · Database statistics · Advertising on aprs.fi · Technical details · API · Change log · Planned changes · Credits and thanks · Terms Of Service · iPhone/iPad APRS